sensor_id;sensor_type;location;lat;lon;timestamp;pressure;altitude;pressure_sealevel;temperature;humidity
25350;BME280;13302;48.796;11.978;2024-02-26T00:01:50;95194.81;;;6.31;35.69
25350;BME280;13302;48.796;11.978;2024-02-26T00:04:37;95190.84;;;6.29;35.58
25350;BME280;13302;48.796;11.978;2024-02-26T00:07:25;95195.03;;;6.23;35.96
25350;BME280;13302;48.796;11.978;2024-02-26T00:10:13;95193.09;;;6.23;35.79
25350;BME280;13302;48.796;11.978;2024-02-26T00:13:00;95194.09;;;6.34;35.61
25350;BME280;13302;48.796;11.978;2024-02-26T00:15:47;95182.69;;;6.32;35.43
25350;BME280;13302;48.796;11.978;2024-02-26T00:18:34;95191.59;;;6.26;35.24
25350;BME280;13302;48.796;11.978;2024-02-26T00:21:21;95187.31;;;6.09;36.05
25350;BME280;13302;48.796;11.978;2024-02-26T00:24:08;95180.72;;;6.10;35.91
25350;BME280;13302;48.796;11.978;2024-02-26T00:26:56;95185.47;;;6.13;35.96
25350;BME280;13302;48.796;11.978;2024-02-26T00:29:43;95186.25;;;6.14;35.61
25350;BME280;13302;48.796;11.978;2024-02-26T00:32:30;95191.88;;;6.02;36.18
25350;BME280;13302;48.796;11.978;2024-02-26T00:35:17;95190.84;;;6.10;35.38
25350;BME280;13302;48.796;11.978;2024-02-26T00:38:07;95191.94;;;6.05;35.79
25350;BME280;13302;48.796;11.978;2024-02-26T00:40:54;95188.47;;;6.08;35.21
25350;BME280;13302;48.796;11.978;2024-02-26T00:43:42;95182.72;;;6.13;35.52
25350;BME280;13302;48.796;11.978;2024-02-26T00:46:29;95187.94;;;6.02;35.44
25350;BME280;13302;48.796;11.978;2024-02-26T00:49:16;95184.94;;;5.88;35.53
25350;BME280;13302;48.796;11.978;2024-02-26T00:52:04;95192.97;;;5.97;35.08
25350;BME280;13302;48.796;11.978;2024-02-26T00:54:51;95185.75;;;5.89;35.58
25350;BME280;13302;48.796;11.978;2024-02-26T00:57:38;95185.97;;;5.80;35.67
25350;BME280;13302;48.796;11.978;2024-02-26T01:00:27;95188.31;;;5.82;35.55
25350;BME280;13302;48.796;11.978;2024-02-26T01:03:14;95182.06;;;5.81;35.77
25350;BME280;13302;48.796;11.978;2024-02-26T01:06:02;95178.16;;;5.82;35.82
25350;BME280;13302;48.796;11.978;2024-02-26T01:08:49;95186.75;;;5.81;35.50
25350;BME280;13302;48.796;11.978;2024-02-26T01:11:37;95179.09;;;5.71;35.97
25350;BME280;13302;48.796;11.978;2024-02-26T01:14:24;95182.34;;;5.76;35.64
25350;BME280;13302;48.796;11.978;2024-02-26T01:17:11;95176.13;;;5.79;35.20
25350;BME280;13302;48.796;11.978;2024-02-26T01:19:58;95178.88;;;5.79;35.17
25350;BME280;13302;48.796;11.978;2024-02-26T01:22:45;95182.69;;;5.75;35.64
25350;BME280;13302;48.796;11.978;2024-02-26T01:25:33;95182.22;;;5.69;35.78
25350;BME280;13302;48.796;11.978;2024-02-26T01:28:20;95181.47;;;5.72;35.20
25350;BME280;13302;48.796;11.978;2024-02-26T01:31:09;95177.81;;;5.65;35.58
25350;BME280;13302;48.796;11.978;2024-02-26T01:33:56;95181.34;;;5.65;35.46
25350;BME280;13302;48.796;11.978;2024-02-26T01:36:44;95187.53;;;5.62;35.46
25350;BME280;13302;48.796;11.978;2024-02-26T01:39:31;95174.97;;;5.61;35.13
25350;BME280;13302;48.796;11.978;2024-02-26T01:42:18;95178.69;;;5.69;34.93
25350;BME280;13302;48.796;11.978;2024-02-26T01:45:05;95175.91;;;5.49;35.42
25350;BME280;13302;48.796;11.978;2024-02-26T01:47:54;95186.38;;;5.44;35.75
25350;BME280;13302;48.796;11.978;2024-02-26T01:50:41;95187.84;;;5.41;35.43
25350;BME280;13302;48.796;11.978;2024-02-26T01:53:29;95181.59;;;5.41;35.68
25350;BME280;13302;48.796;11.978;2024-02-26T01:56:17;95187.06;;;5.41;35.78
25350;BME280;13302;48.796;11.978;2024-02-26T01:59:07;95184.16;;;5.34;35.72
25350;BME280;13302;48.796;11.978;2024-02-26T02:01:57;95178.84;;;5.41;35.58
25350;BME280;13302;48.796;11.978;2024-02-26T02:04:45;95177.84;;;5.49;35.44
25350;BME280;13302;48.796;11.978;2024-02-26T02:07:33;95172.53;;;5.56;35.22
25350;BME280;13302;48.796;11.978;2024-02-26T02:10:21;95168.75;;;5.45;35.75
25350;BME280;13302;48.796;11.978;2024-02-26T02:13:12;95170.94;;;5.55;35.39
25350;BME280;13302;48.796;11.978;2024-02-26T02:15:59;95163.66;;;5.43;35.60
25350;BME280;13302;48.796;11.978;2024-02-26T02:18:46;95154.97;;;5.41;35.75
25350;BME280;13302;48.796;11.978;2024-02-26T02:21:34;95158.91;;;5.40;35.55
25350;BME280;13302;48.796;11.978;2024-02-26T02:24:21;95151.09;;;5.42;35.55
25350;BME280;13302;48.796;11.978;2024-02-26T02:27:08;95155.34;;;5.40;35.57
25350;BME280;13302;48.796;11.978;2024-02-26T02:29:55;95154.91;;;5.38;35.72
25350;BME280;13302;48.796;11.978;2024-02-26T02:32:43;95153.31;;;5.37;35.97
25350;BME280;13302;48.796;11.978;2024-02-26T02:35:31;95153.25;;;5.33;35.87
25350;BME280;13302;48.796;11.978;2024-02-26T02:38:18;95156.69;;;5.30;36.25
25350;BME280;13302;48.796;11.978;2024-02-26T02:41:05;95160.91;;;5.43;35.63
25350;BME280;13302;48.796;11.978;2024-02-26T02:43:52;95160.19;;;5.46;35.46
25350;BME280;13302;48.796;11.978;2024-02-26T02:46:39;95158.97;;;5.44;36.00
25350;BME280;13302;48.796;11.978;2024-02-26T02:49:26;95157.44;;;5.46;35.88
25350;BME280;13302;48.796;11.978;2024-02-26T02:52:14;95152.25;;;5.41;35.71
25350;BME280;13302;48.796;11.978;2024-02-26T02:55:01;95150.38;;;5.45;35.79
25350;BME280;13302;48.796;11.978;2024-02-26T02:57:48;95155.78;;;5.42;35.71
25350;BME280;13302;48.796;11.978;2024-02-26T03:00:35;95143.00;;;5.30;36.29
25350;BME280;13302;48.796;11.978;2024-02-26T03:03:23;95146.47;;;5.27;36.00
25350;BME280;13302;48.796;11.978;2024-02-26T03:06:11;95136.31;;;5.28;36.03
25350;BME280;13302;48.796;11.978;2024-02-26T03:08:58;95145.47;;;5.35;35.84
25350;BME280;13302;48.796;11.978;2024-02-26T03:11:45;95143.22;;;5.41;35.56
25350;BME280;13302;48.796;11.978;2024-02-26T03:14:32;95130.25;;;5.38;35.98
25350;BME280;13302;48.796;11.978;2024-02-26T03:17:20;95137.66;;;5.37;36.12
25350;BME280;13302;48.796;11.978;2024-02-26T03:20:08;95139.25;;;5.38;36.20
25350;BME280;13302;48.796;11.978;2024-02-26T03:22:56;95145.22;;;5.25;36.80
25350;BME280;13302;48.796;11.978;2024-02-26T03:25:44;95148.13;;;5.32;36.50
25350;BME280;13302;48.796;11.978;2024-02-26T03:28:33;95151.06;;;5.23;36.82
25350;BME280;13302;48.796;11.978;2024-02-26T03:31:20;95144.66;;;5.35;36.37
25350;BME280;13302;48.796;11.978;2024-02-26T03:34:08;95137.84;;;5.44;35.81
25350;BME280;13302;48.796;11.978;2024-02-26T03:36:56;95143.16;;;5.37;36.21
25350;BME280;13302;48.796;11.978;2024-02-26T03:39:43;95136.72;;;5.30;36.15
25350;BME280;13302;48.796;11.978;2024-02-26T03:42:30;95141.97;;;5.19;36.78
25350;BME280;13302;48.796;11.978;2024-02-26T03:45:17;95140.75;;;5.17;36.72
25350;BME280;13302;48.796;11.978;2024-02-26T03:48:05;95137.19;;;5.16;36.87
25350;BME280;13302;48.796;11.978;2024-02-26T03:50:52;95139.44;;;5.11;37.35
25350;BME280;13302;48.796;11.978;2024-02-26T03:53:40;95142.78;;;5.20;36.93
25350;BME280;13302;48.796;11.978;2024-02-26T03:56:27;95126.41;;;5.23;36.89
25350;BME280;13302;48.796;11.978;2024-02-26T03:59:14;95118.69;;;5.29;36.65
25350;BME280;13302;48.796;11.978;2024-02-26T04:02:01;95125.25;;;5.24;37.14
25350;BME280;13302;48.796;11.978;2024-02-26T04:04:49;95127.84;;;5.17;37.70
25350;BME280;13302;48.796;11.978;2024-02-26T04:07:36;95124.38;;;5.20;37.42
25350;BME280;13302;48.796;11.978;2024-02-26T04:10:23;95122.09;;;5.22;37.58
25350;BME280;13302;48.796;11.978;2024-02-26T04:13:10;95122.09;;;5.22;38.01
25350;BME280;13302;48.796;11.978;2024-02-26T04:15:57;95126.22;;;5.32;37.67
25350;BME280;13302;48.796;11.978;2024-02-26T04:18:44;95125.69;;;5.26;38.11
25350;BME280;13302;48.796;11.978;2024-02-26T04:21:32;95137.78;;;5.25;38.08
25350;BME280;13302;48.796;11.978;2024-02-26T04:24:19;95134.44;;;5.32;38.15
25350;BME280;13302;48.796;11.978;2024-02-26T04:27:06;95137.84;;;5.44;37.84
25350;BME280;13302;48.796;11.978;2024-02-26T04:29:54;95132.28;;;5.60;37.47
25350;BME280;13302;48.796;11.978;2024-02-26T04:32:41;95138.78;;;5.52;37.70
25350;BME280;13302;48.796;11.978;2024-02-26T04:35:28;95138.97;;;5.43;38.05
25350;BME280;13302;48.796;11.978;2024-02-26T04:38:15;95138.25;;;5.46;37.94
25350;BME280;13302;48.796;11.978;2024-02-26T04:41:02;95145.25;;;5.44;38.24
25350;BME280;13302;48.796;11.978;2024-02-26T04:43:49;95144.09;;;5.45;38.22
25350;BME280;13302;48.796;11.978;2024-02-26T04:46:36;95142.22;;;5.49;38.20
25350;BME280;13302;48.796;11.978;2024-02-26T04:49:23;95155.91;;;5.49;38.24
25350;BME280;13302;48.796;11.978;2024-02-26T04:52:11;95154.03;;;5.53;38.23
25350;BME280;13302;48.796;11.978;2024-02-26T04:54:58;95153.69;;;5.54;38.28
25350;BME280;13302;48.796;11.978;2024-02-26T04:57:47;95154.16;;;5.57;38.14
25350;BME280;13302;48.796;11.978;2024-02-26T05:00:34;95149.81;;;5.56;38.21
25350;BME280;13302;48.796;11.978;2024-02-26T05:03:22;95152.16;;;5.57;38.10
25350;BME280;13302;48.796;11.978;2024-02-26T05:06:09;95157.22;;;5.55;38.12
25350;BME280;13302;48.796;11.978;2024-02-26T05:08:57;95169.34;;;5.54;38.46
25350;BME280;13302;48.796;11.978;2024-02-26T05:11:44;95172.94;;;5.58;38.10
25350;BME280;13302;48.796;11.978;2024-02-26T05:14:31;95173.69;;;5.55;38.34
25350;BME280;13302;48.796;11.978;2024-02-26T05:17:18;95174.81;;;5.54;38.42
25350;BME280;13302;48.796;11.978;2024-02-26T05:20:06;95159.47;;;5.69;38.11
25350;BME280;13302;48.796;11.978;2024-02-26T05:22:54;95161.03;;;5.70;37.99
25350;BME280;13302;48.796;11.978;2024-02-26T05:25:42;95159.41;;;5.84;37.70
25350;BME280;13302;48.796;11.978;2024-02-26T05:28:29;95156.59;;;5.81;37.84
25350;BME280;13302;48.796;11.978;2024-02-26T05:31:16;95162.72;;;5.74;38.22
25350;BME280;13302;48.796;11.978;2024-02-26T05:34:03;95152.47;;;5.71;38.24
25350;BME280;13302;48.796;11.978;2024-02-26T05:36:51;95157.09;;;5.67;38.49
25350;BME280;13302;48.796;11.978;2024-02-26T05:39:38;95157.88;;;5.68;38.49
25350;BME280;13302;48.796;11.978;2024-02-26T05:42:26;95160.41;;;5.76;37.93
25350;BME280;13302;48.796;11.978;2024-02-26T05:45:14;95156.38;;;5.70;38.30
25350;BME280;13302;48.796;11.978;2024-02-26T05:48:01;95160.34;;;5.73;38.10
25350;BME280;13302;48.796;11.978;2024-02-26T05:50:48;95153.06;;;5.80;38.15
25350;BME280;13302;48.796;11.978;2024-02-26T05:53:35;95143.31;;;5.83;38.24
25350;BME280;13302;48.796;11.978;2024-02-26T05:56:22;95136.53;;;5.77;38.23
25350;BME280;13302;48.796;11.978;2024-02-26T05:59:10;95143.50;;;5.74;38.37
25350;BME280;13302;48.796;11.978;2024-02-26T06:01:57;95149.72;;;5.71;38.46
25350;BME280;13302;48.796;11.978;2024-02-26T06:04:44;95158.31;;;5.70;38.33
25350;BME280;13302;48.796;11.978;2024-02-26T06:07:31;95151.69;;;5.71;38.51
25350;BME280;13302;48.796;11.978;2024-02-26T06:10:18;95160.34;;;5.73;38.15
25350;BME280;13302;48.796;11.978;2024-02-26T06:13:08;95174.34;;;5.68;38.33
25350;BME280;13302;48.796;11.978;2024-02-26T06:15:55;95172.66;;;5.63;38.17
25350;BME280;13302;48.796;11.978;2024-02-26T06:18:42;95187.44;;;5.59;38.44
25350;BME280;13302;48.796;11.978;2024-02-26T06:21:29;95184.28;;;5.57;38.37
25350;BME280;13302;48.796;11.978;2024-02-26T06:24:16;95186.66;;;5.58;38.10
25350;BME280;13302;48.796;11.978;2024-02-26T06:27:04;95186.31;;;5.60;37.96
25350;BME280;13302;48.796;11.978;2024-02-26T06:29:51;95194.00;;;5.54;38.56
25350;BME280;13302;48.796;11.978;2024-02-26T06:32:40;95201.44;;;5.53;38.36
25350;BME280;13302;48.796;11.978;2024-02-26T06:35:28;95203.19;;;5.62;38.17
25350;BME280;13302;48.796;11.978;2024-02-26T06:38:15;95205.44;;;5.75;37.98
25350;BME280;13302;48.796;11.978;2024-02-26T06:41:02;95210.31;;;5.66;38.56
25350;BME280;13302;48.796;11.978;2024-02-26T06:43:50;95209.53;;;5.66;38.61
25350;BME280;13302;48.796;11.978;2024-02-26T06:46:37;95215.81;;;5.66;38.90
25350;BME280;13302;48.796;11.978;2024-02-26T06:49:24;95218.63;;;5.70;38.68
25350;BME280;13302;48.796;11.978;2024-02-26T06:52:11;95222.59;;;5.72;38.89
25350;BME280;13302;48.796;11.978;2024-02-26T06:54:59;95227.81;;;5.77;38.92
25350;BME280;13302;48.796;11.978;2024-02-26T06:57:46;95232.19;;;5.82;38.71
25350;BME280;13302;48.796;11.978;2024-02-26T07:00:33;95241.22;;;5.82;38.88
25350;BME280;13302;48.796;11.978;2024-02-26T07:03:20;95237.69;;;5.82;38.63
25350;BME280;13302;48.796;11.978;2024-02-26T07:06:10;95237.69;;;5.82;38.91
25350;BME280;13302;48.796;11.978;2024-02-26T07:08:57;95232.28;;;5.85;39.15
25350;BME280;13302;48.796;11.978;2024-02-26T07:11:44;95237.47;;;5.90;39.10
25350;BME280;13302;48.796;11.978;2024-02-26T07:14:31;95248.16;;;5.95;39.26
25350;BME280;13302;48.796;11.978;2024-02-26T07:17:19;95248.69;;;6.01;39.08
25350;BME280;13302;48.796;11.978;2024-02-26T07:20:07;95244.84;;;6.06;39.47
25350;BME280;13302;48.796;11.978;2024-02-26T07:22:57;95247.31;;;6.11;39.35
25350;BME280;13302;48.796;11.978;2024-02-26T07:25:44;95249.38;;;6.14;39.28
25350;BME280;13302;48.796;11.978;2024-02-26T07:28:34;95242.00;;;6.18;39.11
25350;BME280;13302;48.796;11.978;2024-02-26T07:31:21;95237.56;;;6.32;38.85
25350;BME280;13302;48.796;11.978;2024-02-26T07:34:08;95239.00;;;6.45;38.27
25350;BME280;13302;48.796;11.978;2024-02-26T07:36:56;95248.19;;;6.34;38.47
25350;BME280;13302;48.796;11.978;2024-02-26T07:39:43;95249.28;;;6.29;38.73
25350;BME280;13302;48.796;11.978;2024-02-26T07:42:30;95247.69;;;6.28;38.85
25350;BME280;13302;48.796;11.978;2024-02-26T07:45:18;95265.81;;;6.33;38.88
25350;BME280;13302;48.796;11.978;2024-02-26T07:48:07;95265.06;;;6.36;38.95
25350;BME280;13302;48.796;11.978;2024-02-26T07:50:55;95263.25;;;6.43;39.03
25350;BME280;13302;48.796;11.978;2024-02-26T07:53:42;95262.38;;;6.59;38.53
25350;BME280;13302;48.796;11.978;2024-02-26T07:56:29;95252.25;;;6.63;38.25
25350;BME280;13302;48.796;11.978;2024-02-26T07:59:16;95256.44;;;6.57;38.62
25350;BME280;13302;48.796;11.978;2024-02-26T08:02:03;95262.69;;;6.54;38.93
25350;BME280;13302;48.796;11.978;2024-02-26T08:04:52;95259.59;;;6.55;38.72
25350;BME280;13302;48.796;11.978;2024-02-26T08:07:39;95264.69;;;6.57;39.17
25350;BME280;13302;48.796;11.978;2024-02-26T08:10:26;95269.47;;;6.60;38.73
25350;BME280;13302;48.796;11.978;2024-02-26T08:13:17;95270.34;;;6.64;39.03
25350;BME280;13302;48.796;11.978;2024-02-26T08:16:05;95270.00;;;6.69;38.85
25350;BME280;13302;48.796;11.978;2024-02-26T08:18:53;95276.81;;;6.75;38.91
25350;BME280;13302;48.796;11.978;2024-02-26T08:21:40;95271.19;;;6.90;38.27
25350;BME280;13302;48.796;11.978;2024-02-26T08:24:28;95268.00;;;6.88;38.62
25350;BME280;13302;48.796;11.978;2024-02-26T08:27:15;95262.09;;;6.86;38.63
25350;BME280;13302;48.796;11.978;2024-02-26T08:30:02;95269.13;;;6.84;38.83
25350;BME280;13302;48.796;11.978;2024-02-26T08:32:50;95275.03;;;6.86;38.72
25350;BME280;13302;48.796;11.978;2024-02-26T08:35:38;95275.84;;;6.86;38.71
25350;BME280;13302;48.796;11.978;2024-02-26T08:38:25;95281.75;;;6.88;38.66
25350;BME280;13302;48.796;11.978;2024-02-26T08:41:13;95290.06;;;6.92;38.89
25350;BME280;13302;48.796;11.978;2024-02-26T08:44:00;95286.59;;;6.95;38.85
25350;BME280;13302;48.796;11.978;2024-02-26T08:46:47;95292.13;;;6.99;38.65
25350;BME280;13302;48.796;11.978;2024-02-26T08:49:34;95293.72;;;7.00;38.80
25350;BME280;13302;48.796;11.978;2024-02-26T08:52:21;95295.75;;;7.03;38.72
25350;BME280;13302;48.796;11.978;2024-02-26T08:55:11;95292.63;;;7.04;38.67
25350;BME280;13302;48.796;11.978;2024-02-26T08:58:00;95300.13;;;7.07;38.91
25350;BME280;13302;48.796;11.978;2024-02-26T09:00:47;95297.81;;;7.09;38.79
25350;BME280;13302;48.796;11.978;2024-02-26T09:03:34;95293.97;;;7.14;38.75
25350;BME280;13302;48.796;11.978;2024-02-26T09:06:21;95293.25;;;7.17;38.95
25350;BME280;13302;48.796;11.978;2024-02-26T09:09:09;95287.81;;;7.20;38.79
25350;BME280;13302;48.796;11.978;2024-02-26T09:11:56;95290.25;;;7.25;38.91
25350;BME280;13302;48.796;11.978;2024-02-26T09:14:43;95287.13;;;7.27;39.07
25350;BME280;13302;48.796;11.978;2024-02-26T09:17:30;95295.81;;;7.29;38.95
25350;BME280;13302;48.796;11.978;2024-02-26T09:20:17;95295.06;;;7.32;38.68
25350;BME280;13302;48.796;11.978;2024-02-26T09:23:09;95292.72;;;7.34;38.67
25350;BME280;13302;48.796;11.978;2024-02-26T09:25:56;95291.25;;;7.36;39.02
25350;BME280;13302;48.796;11.978;2024-02-26T09:28:44;95292.09;;;7.41;38.73
25350;BME280;13302;48.796;11.978;2024-02-26T09:31:31;95296.44;;;7.42;38.69
25350;BME280;13302;48.796;11.978;2024-02-26T09:34:19;95296.06;;;7.43;38.79
25350;BME280;13302;48.796;11.978;2024-02-26T09:37:06;95298.06;;;7.46;38.75
25350;BME280;13302;48.796;11.978;2024-02-26T09:40:07;95303.56;;;7.46;38.66
25350;BME280;13302;48.796;11.978;2024-02-26T09:43:00;95289.44;;;7.48;38.90
25350;BME280;13302;48.796;11.978;2024-02-26T09:45:53;95291.09;;;7.52;38.84
25350;BME280;13302;48.796;11.978;2024-02-26T09:48:40;95286.00;;;7.54;38.74
25350;BME280;13302;48.796;11.978;2024-02-26T09:51:29;95272.69;;;7.56;38.65
25350;BME280;13302;48.796;11.978;2024-02-26T09:54:17;95273.53;;;7.60;38.50
25350;BME280;13302;48.796;11.978;2024-02-26T09:57:05;95277.13;;;7.64;38.45
25350;BME280;13302;48.796;11.978;2024-02-26T10:00:03;95277.56;;;7.66;38.77
25350;BME280;13302;48.796;11.978;2024-02-26T10:02:55;95279.56;;;7.69;38.51
25350;BME280;13302;48.796;11.978;2024-02-26T10:05:44;95277.22;;;7.71;38.94
25350;BME280;13302;48.796;11.978;2024-02-26T10:08:32;95281.66;;;7.79;38.27
25350;BME280;13302;48.796;11.978;2024-02-26T10:11:19;95284.19;;;7.92;38.18
25350;BME280;13302;48.796;11.978;2024-02-26T10:14:07;95299.06;;;7.87;38.57
25350;BME280;13302;48.796;11.978;2024-02-26T10:16:56;95291.97;;;7.82;38.83
25350;BME280;13302;48.796;11.978;2024-02-26T10:19:43;95303.38;;;7.84;38.59
25350;BME280;13302;48.796;11.978;2024-02-26T10:22:31;95305.31;;;7.84;38.53
25350;BME280;13302;48.796;11.978;2024-02-26T10:25:19;95295.69;;;7.97;38.27
25350;BME280;13302;48.796;11.978;2024-02-26T10:28:06;95297.63;;;7.97;38.33
25350;BME280;13302;48.796;11.978;2024-02-26T10:30:54;95301.19;;;7.97;38.57
25350;BME280;13302;48.796;11.978;2024-02-26T10:33:43;95313.88;;;8.05;38.29
25350;BME280;13302;48.796;11.978;2024-02-26T10:36:33;95322.88;;;8.02;38.75
25350;BME280;13302;48.796;11.978;2024-02-26T10:39:36;95322.03;;;7.98;38.79
25350;BME280;13302;48.796;11.978;2024-02-26T10:42:23;95327.59;;;8.02;38.84
25350;BME280;13302;48.796;11.978;2024-02-26T10:45:12;95327.25;;;8.03;38.75
25350;BME280;13302;48.796;11.978;2024-02-26T10:48:00;95324.53;;;8.07;38.69
25350;BME280;13302;48.796;11.978;2024-02-26T10:50:48;95319.88;;;8.11;38.68
25350;BME280;13302;48.796;11.978;2024-02-26T10:53:38;95321.59;;;8.22;38.79
25350;BME280;13302;48.796;11.978;2024-02-26T10:56:26;95318.13;;;8.29;38.42
25350;BME280;13302;48.796;11.978;2024-02-26T10:59:15;95315.50;;;8.36;38.14
25350;BME280;13302;48.796;11.978;2024-02-26T11:02:09;95320.19;;;8.36;37.91
25350;BME280;13302;48.796;11.978;2024-02-26T11:04:57;95323.34;;;8.38;37.72
25350;BME280;13302;48.796;11.978;2024-02-26T11:07:45;95327.56;;;8.28;38.05
25350;BME280;13302;48.796;11.978;2024-02-26T11:10:34;95329.19;;;8.32;37.90
25350;BME280;13302;48.796;11.978;2024-02-26T11:13:27;95319.69;;;8.26;38.04
25350;BME280;13302;48.796;11.978;2024-02-26T11:16:23;95327.19;;;8.29;38.16
25350;BME280;13302;48.796;11.978;2024-02-26T11:19:10;95318.66;;;8.38;37.59
25350;BME280;13302;48.796;11.978;2024-02-26T11:21:59;95315.41;;;8.32;38.21
25350;BME280;13302;48.796;11.978;2024-02-26T11:25:02;95318.97;;;8.33;38.30
25350;BME280;13302;48.796;11.978;2024-02-26T11:27:54;95321.72;;;8.33;38.28
25350;BME280;13302;48.796;11.978;2024-02-26T11:30:46;95306.50;;;8.43;38.16
25350;BME280;13302;48.796;11.978;2024-02-26T11:33:34;95308.91;;;8.44;38.28
25350;BME280;13302;48.796;11.978;2024-02-26T11:36:23;95305.31;;;8.40;38.19
25350;BME280;13302;48.796;11.978;2024-02-26T11:39:11;95305.75;;;8.46;38.21
25350;BME280;13302;48.796;11.978;2024-02-26T11:42:13;95293.69;;;8.54;37.87
25350;BME280;13302;48.796;11.978;2024-02-26T11:45:01;95297.31;;;8.61;37.54
25350;BME280;13302;48.796;11.978;2024-02-26T11:47:56;95294.19;;;8.63;37.49
25350;BME280;13302;48.796;11.978;2024-02-26T11:50:48;95291.81;;;8.61;37.50
25350;BME280;13302;48.796;11.978;2024-02-26T11:53:46;95292.22;;;8.63;37.75
25350;BME280;13302;48.796;11.978;2024-02-26T11:56:40;95298.13;;;8.65;37.67
25350;BME280;13302;48.796;11.978;2024-02-26T11:59:40;95302.09;;;8.64;37.74
25350;BME280;13302;48.796;11.978;2024-02-26T12:05:34;95302.13;;;8.68;37.49
25350;BME280;13302;48.796;11.978;2024-02-26T12:08:23;95310.34;;;8.64;37.80
25350;BME280;13302;48.796;11.978;2024-02-26T12:11:15;95306.72;;;8.57;37.92
25350;BME280;13302;48.796;11.978;2024-02-26T12:14:03;95311.03;;;8.58;38.12
25350;BME280;13302;48.796;11.978;2024-02-26T12:16:51;95309.97;;;8.66;37.59
25350;BME280;13302;48.796;11.978;2024-02-26T12:19:38;95312.31;;;8.64;38.09
25350;BME280;13302;48.796;11.978;2024-02-26T12:22:30;95316.59;;;8.61;37.73
25350;BME280;13302;48.796;11.978;2024-02-26T12:25:20;95328.78;;;8.60;38.13
25350;BME280;13302;48.796;11.978;2024-02-26T12:28:08;95328.91;;;8.71;37.36
25350;BME280;13302;48.796;11.978;2024-02-26T12:30:55;95328.97;;;8.78;37.44
25350;BME280;13302;48.796;11.978;2024-02-26T12:33:42;95321.91;;;8.77;37.49
25350;BME280;13302;48.796;11.978;2024-02-26T12:36:30;95328.53;;;8.72;37.47
25350;BME280;13302;48.796;11.978;2024-02-26T12:39:17;95323.09;;;8.80;37.58
25350;BME280;13302;48.796;11.978;2024-02-26T12:42:07;95324.31;;;8.82;37.32
25350;BME280;13302;48.796;11.978;2024-02-26T12:44:54;95321.50;;;8.79;37.51
25350;BME280;13302;48.796;11.978;2024-02-26T12:47:43;95317.28;;;8.85;37.22
25350;BME280;13302;48.796;11.978;2024-02-26T12:50:30;95310.66;;;8.93;37.19
25350;BME280;13302;48.796;11.978;2024-02-26T12:53:18;95313.09;;;8.98;36.87
25350;BME280;13302;48.796;11.978;2024-02-26T12:56:07;95315.47;;;9.03;36.70
25350;BME280;13302;48.796;11.978;2024-02-26T12:58:55;95325.66;;;8.99;36.84
25350;BME280;13302;48.796;11.978;2024-02-26T13:01:43;95311.50;;;8.97;37.39
25350;BME280;13302;48.796;11.978;2024-02-26T13:04:31;95324.44;;;8.93;37.18
25350;BME280;13302;48.796;11.978;2024-02-26T13:07:18;95319.34;;;8.98;37.17
25350;BME280;13302;48.796;11.978;2024-02-26T13:10:07;95317.06;;;9.04;36.91
25350;BME280;13302;48.796;11.978;2024-02-26T13:12:54;95312.72;;;9.03;37.50
25350;BME280;13302;48.796;11.978;2024-02-26T13:15:42;95325.34;;;9.04;37.59
25350;BME280;13302;48.796;11.978;2024-02-26T13:18:29;95330.56;;;9.16;37.00
25350;BME280;13302;48.796;11.978;2024-02-26T13:21:20;95340.44;;;9.17;37.00
25350;BME280;13302;48.796;11.978;2024-02-26T13:24:12;95338.84;;;9.16;37.49
25350;BME280;13302;48.796;11.978;2024-02-26T13:27:00;95342.84;;;9.22;36.88
25350;BME280;13302;48.796;11.978;2024-02-26T13:30:08;95357.88;;;9.28;36.77
25350;BME280;13302;48.796;11.978;2024-02-26T13:33:07;95351.53;;;9.24;36.83
25350;BME280;13302;48.796;11.978;2024-02-26T13:35:55;95343.38;;;9.35;36.54
25350;BME280;13302;48.796;11.978;2024-02-26T13:38:51;95337.81;;;9.31;36.92
25350;BME280;13302;48.796;11.978;2024-02-26T13:41:39;95340.22;;;9.36;36.79
25350;BME280;13302;48.796;11.978;2024-02-26T13:44:28;95348.53;;;9.40;36.99
25350;BME280;13302;48.796;11.978;2024-02-26T13:47:15;95348.94;;;9.38;36.72
25350;BME280;13302;48.796;11.978;2024-02-26T13:50:03;95340.34;;;9.47;36.89
25350;BME280;13302;48.796;11.978;2024-02-26T13:52:51;95335.22;;;9.49;36.38
25350;BME280;13302;48.796;11.978;2024-02-26T13:55:41;95327.75;;;9.53;36.39
25350;BME280;13302;48.796;11.978;2024-02-26T13:58:31;95336.44;;;9.51;36.96
25350;BME280;13302;48.796;11.978;2024-02-26T14:01:18;95331.69;;;9.52;36.69
25350;BME280;13302;48.796;11.978;2024-02-26T14:04:05;95335.34;;;9.59;36.54
25350;BME280;13302;48.796;11.978;2024-02-26T14:06:55;95333.44;;;9.67;36.14
25350;BME280;13302;48.796;11.978;2024-02-26T14:09:43;95333.84;;;9.73;35.95
25350;BME280;13302;48.796;11.978;2024-02-26T14:12:36;95331.53;;;9.75;35.70
25350;BME280;13302;48.796;11.978;2024-02-26T14:15:23;95329.13;;;9.70;35.84
25350;BME280;13302;48.796;11.978;2024-02-26T14:18:11;95343.66;;;9.63;36.44
25350;BME280;13302;48.796;11.978;2024-02-26T14:20:58;95354.25;;;9.61;36.38
25350;BME280;13302;48.796;11.978;2024-02-26T14:23:46;95361.78;;;9.64;36.52
25350;BME280;13302;48.796;11.978;2024-02-26T14:26:33;95355.91;;;9.69;36.12
25350;BME280;13302;48.796;11.978;2024-02-26T14:29:20;95361.47;;;9.73;36.11
25350;BME280;13302;48.796;11.978;2024-02-26T14:32:07;95359.09;;;9.71;36.11
25350;BME280;13302;48.796;11.978;2024-02-26T14:34:56;95364.59;;;9.67;36.53
25350;BME280;13302;48.796;11.978;2024-02-26T14:37:44;95364.97;;;9.70;36.81
25350;BME280;13302;48.796;11.978;2024-02-26T14:40:36;95358.72;;;9.76;36.64
25350;BME280;13302;48.796;11.978;2024-02-26T14:43:23;95351.66;;;9.79;36.50
25350;BME280;13302;48.796;11.978;2024-02-26T14:46:10;95362.78;;;9.89;35.89
25350;BME280;13302;48.796;11.978;2024-02-26T14:48:57;95365.13;;;9.87;35.26
25350;BME280;13302;48.796;11.978;2024-02-26T14:51:45;95365.13;;;9.87;35.29
25350;BME280;13302;48.796;11.978;2024-02-26T14:54:32;95368.69;;;9.88;35.00